sensor_id;sensor_type;location;lat;lon;timestamp;P1;durP1;ratioP1;P2;durP2;ratioP2
73747;SDS011;62056;52.130;5.428;2023-04-06T00:01:58;14.65;;;7.95;;
73747;SDS011;62056;52.130;5.428;2023-04-06T00:04:25;8.15;;;7.22;;
73747;SDS011;62056;52.130;5.428;2023-04-06T00:06:53;10.82;;;7.68;;
73747;SDS011;62056;52.130;5.428;2023-04-06T00:09:19;13.83;;;7.43;;
73747;SDS011;62056;52.130;5.428;2023-04-06T00:11:46;14.68;;;8.20;;
73747;SDS011;62056;52.130;5.428;2023-04-06T00:14:13;15.70;;;7.38;;
73747;SDS011;62056;52.130;5.428;2023-04-06T00:16:40;10.85;;;7.15;;
73747;SDS011;62056;52.130;5.428;2023-04-06T00:19:06;12.07;;;7.25;;
73747;SDS011;62056;52.130;5.428;2023-04-06T00:21:34;11.13;;;7.43;;
73747;SDS011;62056;52.130;5.428;2023-04-06T00:24:28;13.52;;;6.65;;
73747;SDS011;62056;52.130;5.428;2023-04-06T00:26:54;20.20;;;8.48;;
73747;SDS011;62056;52.130;5.428;2023-04-06T00:29:21;12.10;;;7.60;;
73747;SDS011;62056;52.130;5.428;2023-04-06T00:31:48;14.25;;;7.28;;
73747;SDS011;62056;52.130;5.428;2023-04-06T00:34:42;9.27;;;7.07;;
73747;SDS011;62056;52.130;5.428;2023-04-06T00:37:09;10.20;;;7.15;;
73747;SDS011;62056;52.130;5.428;2023-04-06T00:39:36;12.68;;;7.18;;
73747;SDS011;62056;52.130;5.428;2023-04-06T00:42:07;10.23;;;7.03;;
73747;SDS011;62056;52.130;5.428;2023-04-06T00:44:39;14.57;;;7.57;;
73747;SDS011;62056;52.130;5.428;2023-04-06T00:47:08;14.97;;;7.90;;
73747;SDS011;62056;52.130;5.428;2023-04-06T00:49:35;13.98;;;7.43;;
73747;SDS011;62056;52.130;5.428;2023-04-06T00:52:02;12.55;;;7.63;;
73747;SDS011;62056;52.130;5.428;2023-04-06T00:54:29;9.20;;;6.40;;
73747;SDS011;62056;52.130;5.428;2023-04-06T00:56:57;8.65;;;6.97;;
73747;SDS011;62056;52.130;5.428;2023-04-06T00:59:24;11.97;;;8.10;;
73747;SDS011;62056;52.130;5.428;2023-04-06T01:01:51;13.85;;;6.97;;
73747;SDS011;62056;52.130;5.428;2023-04-06T01:04:18;8.30;;;6.32;;
73747;SDS011;62056;52.130;5.428;2023-04-06T01:06:45;15.20;;;7.90;;
73747;SDS011;62056;52.130;5.428;2023-04-06T01:09:12;12.27;;;8.02;;
73747;SDS011;62056;52.130;5.428;2023-04-06T01:11:38;12.83;;;7.23;;
73747;SDS011;62056;52.130;5.428;2023-04-06T01:14:05;10.55;;;7.82;;
73747;SDS011;62056;52.130;5.428;2023-04-06T01:16:32;15.43;;;7.57;;
73747;SDS011;62056;52.130;5.428;2023-04-06T01:19:06;8.93;;;6.68;;
73747;SDS011;62056;52.130;5.428;2023-04-06T01:21:35;10.43;;;6.05;;
73747;SDS011;62056;52.130;5.428;2023-04-06T01:24:05;14.07;;;7.30;;
73747;SDS011;62056;52.130;5.428;2023-04-06T01:26:32;14.65;;;7.80;;
73747;SDS011;62056;52.130;5.428;2023-04-06T01:28:59;18.13;;;7.38;;
73747;SDS011;62056;52.130;5.428;2023-04-06T01:31:26;11.18;;;7.15;;
73747;SDS011;62056;52.130;5.428;2023-04-06T01:33:53;10.32;;;7.70;;
73747;SDS011;62056;52.130;5.428;2023-04-06T01:36:20;11.40;;;8.30;;
73747;SDS011;62056;52.130;5.428;2023-04-06T01:38:48;16.05;;;11.82;;
73747;SDS011;62056;52.130;5.428;2023-04-06T01:41:15;16.48;;;9.77;;
73747;SDS011;62056;52.130;5.428;2023-04-06T01:43:43;14.52;;;9.48;;
73747;SDS011;62056;52.130;5.428;2023-04-06T01:46:10;16.00;;;10.27;;
73747;SDS011;62056;52.130;5.428;2023-04-06T01:48:37;10.20;;;6.93;;
73747;SDS011;62056;52.130;5.428;2023-04-06T01:51:04;16.95;;;9.00;;
73747;SDS011;62056;52.130;5.428;2023-04-06T01:53:31;11.85;;;7.88;;
73747;SDS011;62056;52.130;5.428;2023-04-06T01:55:58;8.63;;;5.68;;
73747;SDS011;62056;52.130;5.428;2023-04-06T01:58:24;10.15;;;6.75;;
73747;SDS011;62056;52.130;5.428;2023-04-06T02:00:51;12.73;;;7.50;;
73747;SDS011;62056;52.130;5.428;2023-04-06T02:03:18;12.13;;;7.22;;
73747;SDS011;62056;52.130;5.428;2023-04-06T02:05:45;8.60;;;6.45;;
73747;SDS011;62056;52.130;5.428;2023-04-06T02:08:12;11.27;;;7.05;;
73747;SDS011;62056;52.130;5.428;2023-04-06T02:10:38;9.00;;;7.20;;
73747;SDS011;62056;52.130;5.428;2023-04-06T02:13:05;9.30;;;7.33;;
73747;SDS011;62056;52.130;5.428;2023-04-06T02:15:32;10.27;;;7.25;;
73747;SDS011;62056;52.130;5.428;2023-04-06T02:17:59;7.30;;;5.68;;
73747;SDS011;62056;52.130;5.428;2023-04-06T02:20:27;9.85;;;7.05;;
73747;SDS011;62056;52.130;5.428;2023-04-06T02:22:53;11.55;;;6.88;;
73747;SDS011;62056;52.130;5.428;2023-04-06T02:25:20;10.97;;;6.70;;
73747;SDS011;62056;52.130;5.428;2023-04-06T02:27:47;9.55;;;7.03;;
73747;SDS011;62056;52.130;5.428;2023-04-06T02:30:14;11.63;;;6.70;;
73747;SDS011;62056;52.130;5.428;2023-04-06T02:32:40;8.48;;;6.22;;
73747;SDS011;62056;52.130;5.428;2023-04-06T02:35:07;9.82;;;6.22;;
73747;SDS011;62056;52.130;5.428;2023-04-06T02:37:34;8.50;;;5.60;;
73747;SDS011;62056;52.130;5.428;2023-04-06T02:40:01;9.82;;;5.65;;
73747;SDS011;62056;52.130;5.428;2023-04-06T02:42:28;8.35;;;6.85;;
73747;SDS011;62056;52.130;5.428;2023-04-06T02:44:55;6.78;;;4.85;;
73747;SDS011;62056;52.130;5.428;2023-04-06T02:47:22;8.38;;;5.45;;
73747;SDS011;62056;52.130;5.428;2023-04-06T02:49:48;9.57;;;6.23;;
73747;SDS011;62056;52.130;5.428;2023-04-06T02:52:15;9.10;;;6.05;;
73747;SDS011;62056;52.130;5.428;2023-04-06T02:54:44;9.98;;;6.15;;
73747;SDS011;62056;52.130;5.428;2023-04-06T02:57:10;9.13;;;4.90;;
73747;SDS011;62056;52.130;5.428;2023-04-06T02:59:37;6.85;;;5.20;;
73747;SDS011;62056;52.130;5.428;2023-04-06T03:02:04;6.97;;;5.67;;
73747;SDS011;62056;52.130;5.428;2023-04-06T03:04:31;6.90;;;5.57;;
73747;SDS011;62056;52.130;5.428;2023-04-06T03:06:57;9.65;;;5.85;;
73747;SDS011;62056;52.130;5.428;2023-04-06T03:09:26;10.00;;;5.65;;
73747;SDS011;62056;52.130;5.428;2023-04-06T03:11:53;9.55;;;6.03;;
73747;SDS011;62056;52.130;5.428;2023-04-06T03:14:21;8.43;;;5.90;;
73747;SDS011;62056;52.130;5.428;2023-04-06T03:16:48;8.60;;;5.97;;
73747;SDS011;62056;52.130;5.428;2023-04-06T03:19:15;8.85;;;6.07;;
73747;SDS011;62056;52.130;5.428;2023-04-06T03:21:42;8.45;;;6.13;;
73747;SDS011;62056;52.130;5.428;2023-04-06T03:24:37;6.68;;;5.35;;
73747;SDS011;62056;52.130;5.428;2023-04-06T03:27:04;11.60;;;6.00;;
73747;SDS011;62056;52.130;5.428;2023-04-06T03:29:30;9.52;;;5.28;;
73747;SDS011;62056;52.130;5.428;2023-04-06T03:31:58;11.40;;;5.32;;
73747;SDS011;62056;52.130;5.428;2023-04-06T03:34:52;10.95;;;4.93;;
73747;SDS011;62056;52.130;5.428;2023-04-06T03:37:18;7.45;;;5.05;;
73747;SDS011;62056;52.130;5.428;2023-04-06T03:39:45;6.47;;;4.97;;
73747;SDS011;62056;52.130;5.428;2023-04-06T03:42:12;10.95;;;5.43;;
73747;SDS011;62056;52.130;5.428;2023-04-06T03:44:38;8.85;;;5.45;;
73747;SDS011;62056;52.130;5.428;2023-04-06T03:47:05;8.30;;;4.97;;
73747;SDS011;62056;52.130;5.428;2023-04-06T03:49:32;7.68;;;5.43;;
73747;SDS011;62056;52.130;5.428;2023-04-06T03:51:58;8.87;;;4.90;;
73747;SDS011;62056;52.130;5.428;2023-04-06T03:54:25;7.47;;;5.30;;
73747;SDS011;62056;52.130;5.428;2023-04-06T03:56:52;7.18;;;5.13;;
73747;SDS011;62056;52.130;5.428;2023-04-06T03:59:19;7.78;;;4.95;;
73747;SDS011;62056;52.130;5.428;2023-04-06T04:01:46;8.65;;;5.95;;
73747;SDS011;62056;52.130;5.428;2023-04-06T04:04:12;5.67;;;4.97;;
73747;SDS011;62056;52.130;5.428;2023-04-06T04:06:39;7.18;;;5.97;;
73747;SDS011;62056;52.130;5.428;2023-04-06T04:09:06;6.18;;;4.80;;
73747;SDS011;62056;52.130;5.428;2023-04-06T04:11:32;9.65;;;5.72;;
73747;SDS011;62056;52.130;5.428;2023-04-06T04:13:59;10.35;;;5.93;;
73747;SDS011;62056;52.130;5.428;2023-04-06T04:16:26;10.73;;;5.00;;
73747;SDS011;62056;52.130;5.428;2023-04-06T04:18:52;12.50;;;7.60;;
73747;SDS011;62056;52.130;5.428;2023-04-06T04:21:19;8.45;;;6.18;;
73747;SDS011;62056;52.130;5.428;2023-04-06T04:23:46;10.00;;;6.28;;
73747;SDS011;62056;52.130;5.428;2023-04-06T04:26:13;11.85;;;6.55;;
73747;SDS011;62056;52.130;5.428;2023-04-06T04:28:40;7.03;;;5.40;;
73747;SDS011;62056;52.130;5.428;2023-04-06T04:31:06;8.23;;;5.38;;
73747;SDS011;62056;52.130;5.428;2023-04-06T04:33:33;10.40;;;6.35;;
73747;SDS011;62056;52.130;5.428;2023-04-06T04:36:00;8.45;;;6.35;;
73747;SDS011;62056;52.130;5.428;2023-04-06T04:38:26;8.13;;;6.10;;
73747;SDS011;62056;52.130;5.428;2023-04-06T04:40:53;9.20;;;6.47;;
73747;SDS011;62056;52.130;5.428;2023-04-06T04:43:20;8.52;;;5.97;;
73747;SDS011;62056;52.130;5.428;2023-04-06T04:45:46;7.32;;;5.75;;
73747;SDS011;62056;52.130;5.428;2023-04-06T04:48:13;10.10;;;5.80;;
73747;SDS011;62056;52.130;5.428;2023-04-06T04:50:40;10.18;;;6.40;;
73747;SDS011;62056;52.130;5.428;2023-04-06T04:53:07;7.87;;;5.80;;
73747;SDS011;62056;52.130;5.428;2023-04-06T04:55:34;9.07;;;5.70;;
73747;SDS011;62056;52.130;5.428;2023-04-06T04:58:01;13.75;;;6.70;;
73747;SDS011;62056;52.130;5.428;2023-04-06T05:00:28;8.13;;;5.82;;
73747;SDS011;62056;52.130;5.428;2023-04-06T05:02:55;9.57;;;6.45;;
73747;SDS011;62056;52.130;5.428;2023-04-06T05:05:22;10.80;;;5.90;;
73747;SDS011;62056;52.130;5.428;2023-04-06T05:07:49;10.90;;;6.28;;
73747;SDS011;62056;52.130;5.428;2023-04-06T05:10:16;15.10;;;6.68;;
73747;SDS011;62056;52.130;5.428;2023-04-06T05:12:43;11.80;;;6.47;;
73747;SDS011;62056;52.130;5.428;2023-04-06T05:15:09;8.82;;;6.70;;
73747;SDS011;62056;52.130;5.428;2023-04-06T05:17:36;8.43;;;5.53;;
73747;SDS011;62056;52.130;5.428;2023-04-06T05:20:03;7.93;;;6.57;;
73747;SDS011;62056;52.130;5.428;2023-04-06T05:22:31;11.65;;;5.68;;
73747;SDS011;62056;52.130;5.428;2023-04-06T05:24:58;9.15;;;6.18;;
73747;SDS011;62056;52.130;5.428;2023-04-06T05:27:25;11.38;;;7.25;;
73747;SDS011;62056;52.130;5.428;2023-04-06T05:29:51;10.70;;;6.83;;
73747;SDS011;62056;52.130;5.428;2023-04-06T05:32:21;10.18;;;6.93;;
73747;SDS011;62056;52.130;5.428;2023-04-06T05:34:50;9.93;;;6.55;;
73747;SDS011;62056;52.130;5.428;2023-04-06T05:37:17;10.52;;;6.70;;
73747;SDS011;62056;52.130;5.428;2023-04-06T05:39:44;11.48;;;7.45;;
73747;SDS011;62056;52.130;5.428;2023-04-06T05:42:10;12.77;;;7.00;;
73747;SDS011;62056;52.130;5.428;2023-04-06T05:44:37;10.90;;;7.00;;
73747;SDS011;62056;52.130;5.428;2023-04-06T05:47:04;10.25;;;7.03;;
73747;SDS011;62056;52.130;5.428;2023-04-06T05:49:31;12.18;;;7.50;;
73747;SDS011;62056;52.130;5.428;2023-04-06T05:51:58;11.88;;;7.93;;
73747;SDS011;62056;52.130;5.428;2023-04-06T05:54:52;12.30;;;7.10;;
73747;SDS011;62056;52.130;5.428;2023-04-06T05:57:19;12.02;;;6.80;;
73747;SDS011;62056;52.130;5.428;2023-04-06T05:59:46;11.70;;;7.32;;
73747;SDS011;62056;52.130;5.428;2023-04-06T06:02:12;13.57;;;8.18;;
73747;SDS011;62056;52.130;5.428;2023-04-06T06:04:40;13.02;;;7.90;;
73747;SDS011;62056;52.130;5.428;2023-04-06T06:07:07;12.83;;;8.03;;
73747;SDS011;62056;52.130;5.428;2023-04-06T06:09:33;13.20;;;7.25;;
73747;SDS011;62056;52.130;5.428;2023-04-06T06:12:00;18.15;;;8.40;;
73747;SDS011;62056;52.130;5.428;2023-04-06T06:14:27;13.13;;;8.55;;
73747;SDS011;62056;52.130;5.428;2023-04-06T06:16:57;16.25;;;8.38;;
73747;SDS011;62056;52.130;5.428;2023-04-06T06:19:23;12.53;;;7.77;;
73747;SDS011;62056;52.130;5.428;2023-04-06T06:21:50;16.00;;;8.25;;
73747;SDS011;62056;52.130;5.428;2023-04-06T06:24:18;14.52;;;8.13;;
73747;SDS011;62056;52.130;5.428;2023-04-06T06:26:44;16.27;;;8.55;;
73747;SDS011;62056;52.130;5.428;2023-04-06T06:29:11;12.43;;;7.57;;
73747;SDS011;62056;52.130;5.428;2023-04-06T06:31:38;17.50;;;9.03;;
73747;SDS011;62056;52.130;5.428;2023-04-06T06:34:05;14.70;;;9.45;;
73747;SDS011;62056;52.130;5.428;2023-04-06T06:36:33;14.73;;;8.68;;
73747;SDS011;62056;52.130;5.428;2023-04-06T06:39:01;12.65;;;8.80;;
73747;SDS011;62056;52.130;5.428;2023-04-06T06:41:29;18.92;;;11.13;;
73747;SDS011;62056;52.130;5.428;2023-04-06T06:43:56;18.70;;;8.93;;
73747;SDS011;62056;52.130;5.428;2023-04-06T06:46:23;11.38;;;7.75;;
73747;SDS011;62056;52.130;5.428;2023-04-06T06:48:49;17.13;;;9.27;;
73747;SDS011;62056;52.130;5.428;2023-04-06T06:51:16;10.30;;;6.65;;
73747;SDS011;62056;52.130;5.428;2023-04-06T06:53:43;10.25;;;7.13;;
73747;SDS011;62056;52.130;5.428;2023-04-06T06:56:10;17.07;;;9.90;;
73747;SDS011;62056;52.130;5.428;2023-04-06T06:58:37;12.60;;;7.22;;
73747;SDS011;62056;52.130;5.428;2023-04-06T07:01:03;15.80;;;8.50;;
73747;SDS011;62056;52.130;5.428;2023-04-06T07:03:59;11.82;;;7.97;;
73747;SDS011;62056;52.130;5.428;2023-04-06T07:06:25;15.10;;;9.52;;
73747;SDS011;62056;52.130;5.428;2023-04-06T07:08:52;14.27;;;9.30;;
73747;SDS011;62056;52.130;5.428;2023-04-06T07:11:19;16.77;;;9.65;;
73747;SDS011;62056;52.130;5.428;2023-04-06T07:13:46;15.43;;;9.45;;
73747;SDS011;62056;52.130;5.428;2023-04-06T07:16:13;16.08;;;9.52;;
73747;SDS011;62056;52.130;5.428;2023-04-06T07:18:49;16.50;;;10.25;;
73747;SDS011;62056;52.130;5.428;2023-04-06T07:21:16;20.70;;;9.97;;
73747;SDS011;62056;52.130;5.428;2023-04-06T07:23:43;18.48;;;9.77;;
73747;SDS011;62056;52.130;5.428;2023-04-06T07:26:10;16.75;;;9.93;;
73747;SDS011;62056;52.130;5.428;2023-04-06T07:28:36;14.40;;;9.27;;
73747;SDS011;62056;52.130;5.428;2023-04-06T07:31:03;18.05;;;10.40;;
73747;SDS011;62056;52.130;5.428;2023-04-06T07:33:30;17.87;;;10.57;;
73747;SDS011;62056;52.130;5.428;2023-04-06T07:35:57;19.55;;;10.50;;
73747;SDS011;62056;52.130;5.428;2023-04-06T07:38:25;18.77;;;10.57;;
73747;SDS011;62056;52.130;5.428;2023-04-06T07:40:52;23.88;;;12.07;;
73747;SDS011;62056;52.130;5.428;2023-04-06T07:43:20;13.20;;;9.43;;
73747;SDS011;62056;52.130;5.428;2023-04-06T07:45:47;12.87;;;9.57;;
73747;SDS011;62056;52.130;5.428;2023-04-06T07:48:41;11.55;;;8.20;;
73747;SDS011;62056;52.130;5.428;2023-04-06T07:51:09;16.52;;;9.45;;
73747;SDS011;62056;52.130;5.428;2023-04-06T07:53:45;17.15;;;10.75;;
73747;SDS011;62056;52.130;5.428;2023-04-06T07:56:12;17.20;;;10.52;;
73747;SDS011;62056;52.130;5.428;2023-04-06T07:58:38;13.97;;;10.17;;
73747;SDS011;62056;52.130;5.428;2023-04-06T08:01:05;9.75;;;7.63;;
73747;SDS011;62056;52.130;5.428;2023-04-06T08:03:36;17.05;;;9.75;;
73747;SDS011;62056;52.130;5.428;2023-04-06T08:06:03;18.33;;;9.73;;
73747;SDS011;62056;52.130;5.428;2023-04-06T08:08:31;17.05;;;11.32;;
73747;SDS011;62056;52.130;5.428;2023-04-06T08:10:57;16.30;;;9.47;;
73747;SDS011;62056;52.130;5.428;2023-04-06T08:13:28;21.85;;;12.13;;
73747;SDS011;62056;52.130;5.428;2023-04-06T08:15:55;16.17;;;10.85;;
73747;SDS011;62056;52.130;5.428;2023-04-06T08:18:22;22.15;;;10.43;;
73747;SDS011;62056;52.130;5.428;2023-04-06T08:20:48;23.38;;;11.82;;
73747;SDS011;62056;52.130;5.428;2023-04-06T08:23:15;14.13;;;10.47;;
73747;SDS011;62056;52.130;5.428;2023-04-06T08:25:43;20.27;;;10.80;;
73747;SDS011;62056;52.130;5.428;2023-04-06T08:28:09;18.40;;;12.02;;
73747;SDS011;62056;52.130;5.428;2023-04-06T08:30:36;20.38;;;12.05;;
73747;SDS011;62056;52.130;5.428;2023-04-06T08:33:34;23.38;;;11.40;;
73747;SDS011;62056;52.130;5.428;2023-04-06T08:36:09;15.43;;;10.83;;
73747;SDS011;62056;52.130;5.428;2023-04-06T08:38:37;19.80;;;11.73;;
73747;SDS011;62056;52.130;5.428;2023-04-06T08:41:09;20.70;;;12.82;;
73747;SDS011;62056;52.130;5.428;2023-04-06T08:43:44;17.38;;;11.63;;
73747;SDS011;62056;52.130;5.428;2023-04-06T08:46:14;22.45;;;12.15;;
73747;SDS011;62056;52.130;5.428;2023-04-06T08:48:44;14.27;;;9.27;;
73747;SDS011;62056;52.130;5.428;2023-04-06T08:51:13;17.98;;;12.27;;
73747;SDS011;62056;52.130;5.428;2023-04-06T08:53:41;18.25;;;11.73;;
73747;SDS011;62056;52.130;5.428;2023-04-06T08:56:07;14.85;;;10.63;;
73747;SDS011;62056;52.130;5.428;2023-04-06T08:58:37;16.38;;;10.95;;
73747;SDS011;62056;52.130;5.428;2023-04-06T09:01:07;20.87;;;12.67;;
73747;SDS011;62056;52.130;5.428;2023-04-06T09:03:37;23.48;;;12.60;;
73747;SDS011;62056;52.130;5.428;2023-04-06T09:06:07;18.02;;;11.98;;
73747;SDS011;62056;52.130;5.428;2023-04-06T09:08:35;19.05;;;12.35;;
73747;SDS011;62056;52.130;5.428;2023-04-06T09:11:02;10.60;;;7.20;;
73747;SDS011;62056;52.130;5.428;2023-04-06T09:13:29;17.03;;;12.57;;
73747;SDS011;62056;52.130;5.428;2023-04-06T09:16:03;16.75;;;10.85;;
73747;SDS011;62056;52.130;5.428;2023-04-06T09:19:03;21.17;;;14.73;;
73747;SDS011;62056;52.130;5.428;2023-04-06T09:21:31;19.83;;;12.35;;
73747;SDS011;62056;52.130;5.428;2023-04-06T09:23:58;22.40;;;12.80;;
73747;SDS011;62056;52.130;5.428;2023-04-06T09:26:28;22.40;;;13.20;;
73747;SDS011;62056;52.130;5.428;2023-04-06T09:28:56;17.42;;;11.80;;
73747;SDS011;62056;52.130;5.428;2023-04-06T09:31:27;20.30;;;13.18;;
73747;SDS011;62056;52.130;5.428;2023-04-06T09:33:56;25.00;;;17.83;;
73747;SDS011;62056;52.130;5.428;2023-04-06T09:36:30;20.33;;;13.55;;
73747;SDS011;62056;52.130;5.428;2023-04-06T09:39:01;15.53;;;9.53;;
73747;SDS011;62056;52.130;5.428;2023-04-06T09:41:34;18.50;;;12.02;;
73747;SDS011;62056;52.130;5.428;2023-04-06T09:46:33;17.33;;;13.07;;
73747;SDS011;62056;52.130;5.428;2023-04-06T09:49:24;18.00;;;11.50;;
73747;SDS011;62056;52.130;5.428;2023-04-06T09:51:55;17.00;;;12.17;;
73747;SDS011;62056;52.130;5.428;2023-04-06T09:54:27;17.73;;;12.73;;
73747;SDS011;62056;52.130;5.428;2023-04-06T10:02:30;22.27;;;12.55;;
73747;SDS011;62056;52.130;5.428;2023-04-06T10:05:19;21.47;;;13.77;;
73747;SDS011;62056;52.130;5.428;2023-04-06T10:07:49;25.42;;;13.88;;
73747;SDS011;62056;52.130;5.428;2023-04-06T10:10:26;20.92;;;12.63;;
73747;SDS011;62056;52.130;5.428;2023-04-06T10:12:59;18.40;;;10.85;;
73747;SDS011;62056;52.130;5.428;2023-04-06T10:15:30;18.60;;;11.82;;
73747;SDS011;62056;52.130;5.428;2023-04-06T10:18:00;22.93;;;12.93;;
73747;SDS011;62056;52.130;5.428;2023-04-06T10:23:58;11.25;;;9.10;;
73747;SDS011;62056;52.130;5.428;2023-04-06T10:27:00;17.63;;;9.88;;
73747;SDS011;62056;52.130;5.428;2023-04-06T10:29:28;47.45;;;33.35;;
73747;SDS011;62056;52.130;5.428;2023-04-06T10:32:06;20.23;;;14.23;;
73747;SDS011;62056;52.130;5.428;2023-04-06T10:34:36;13.90;;;10.52;;
73747;SDS011;62056;52.130;5.428;2023-04-06T10:37:15;11.85;;;9.45;;
73747;SDS011;62056;52.130;5.428;2023-04-06T10:39:52;14.27;;;9.15;;
73747;SDS011;62056;52.130;5.428;2023-04-06T10:42:24;14.43;;;9.50;;
73747;SDS011;62056;52.130;5.428;2023-04-06T10:44:51;10.60;;;7.83;;
73747;SDS011;62056;52.130;5.428;2023-04-06T10:47:18;7.63;;;5.88;;
73747;SDS011;62056;52.130;5.428;2023-04-06T10:49:45;8.10;;;5.18;;
73747;SDS011;62056;52.130;5.428;2023-04-06T10:52:11;6.10;;;3.30;;
73747;SDS011;62056;52.130;5.428;2023-04-06T10:54:41;5.95;;;4.30;;
73747;SDS011;62056;52.130;5.428;2023-04-06T10:57:10;6.37;;;4.47;;
73747;SDS011;62056;52.130;5.428;2023-04-06T10:59:36;5.32;;;3.97;;
73747;SDS011;62056;52.130;5.428;2023-04-06T11:02:07;3.85;;;3.47;;
73747;SDS011;62056;52.130;5.428;2023-04-06T11:04:34;4.82;;;4.05;;
73747;SDS011;62056;52.130;5.428;2023-04-06T11:07:01;4.63;;;3.40;;
73747;SDS011;62056;52.130;5.428;2023-04-06T11:09:29;5.07;;;4.27;;
73747;SDS011;62056;52.130;5.428;2023-04-06T11:11:57;4.53;;;3.65;;
73747;SDS011;62056;52.130;5.428;2023-04-06T11:14:24;2.97;;;2.55;;
73747;SDS011;62056;52.130;5.428;2023-04-06T11:16:53;4.97;;;3.45;;
73747;SDS011;62056;52.130;5.428;2023-04-06T11:19:19;3.08;;;2.60;;
73747;SDS011;62056;52.130;5.428;2023-04-06T11:21:47;2.60;;;2.27;;
73747;SDS011;62056;52.130;5.428;2023-04-06T11:26:55;4.25;;;3.78;;
73747;SDS011;62056;52.130;5.428;2023-04-06T11:29:25;3.92;;;2.47;;
73747;SDS011;62056;52.130;5.428;2023-04-06T11:32:01;2.50;;;2.10;;
73747;SDS011;62056;52.130;5.428;2023-04-06T11:34:33;4.63;;;3.13;;
73747;SDS011;62056;52.130;5.428;2023-04-06T11:37:07;3.47;;;3.03;;
73747;SDS011;62056;52.130;5.428;2023-04-06T11:39:38;5.30;;;3.97;;
73747;SDS011;62056;52.130;5.428;2023-04-06T11:42:06;4.85;;;3.20;;
73747;SDS011;62056;52.130;5.428;2023-04-06T11:47:06;5.43;;;3.77;;
73747;SDS011;62056;52.130;5.428;2023-04-06T11:49:37;4.45;;;2.60;;
73747;SDS011;62056;52.130;5.428;2023-04-06T11:52:14;3.75;;;2.42;;
73747;SDS011;62056;52.130;5.428;2023-04-06T11:54:42;3.60;;;2.55;;
73747;SDS011;62056;52.130;5.428;2023-04-06T11:57:09;4.30;;;2.88;;
73747;SDS011;62056;52.130;5.428;2023-04-06T11:59:35;3.07;;;2.50;;
73747;SDS011;62056;52.130;5.428;2023-04-06T12:02:03;5.60;;;3.40;;
73747;SDS011;62056;52.130;5.428;2023-04-06T12:04:30;3.47;;;3.17;;
73747;SDS011;62056;52.130;5.428;2023-04-06T12:07:00;4.55;;;3.55;;
73747;SDS011;62056;52.130;5.428;2023-04-06T12:09:27;4.43;;;2.80;;
73747;SDS011;62056;52.130;5.428;2023-04-06T12:11:54;3.23;;;2.93;;
73747;SDS011;62056;52.130;5.428;2023-04-06T12:14:22;4.18;;;2.33;;
73747;SDS011;62056;52.130;5.428;2023-04-06T12:16:49;4.32;;;3.30;;
73747;SDS011;62056;52.130;5.428;2023-04-06T12:19:16;5.15;;;3.60;;
73747;SDS011;62056;52.130;5.428;2023-04-06T12:21:42;4.05;;;3.47;;
73747;SDS011;62056;52.130;5.428;2023-04-06T12:24:14;3.77;;;2.37;;
73747;SDS011;62056;52.130;5.428;2023-04-06T12:26:42;5.38;;;3.90;;
73747;SDS011;62056;52.130;5.428;2023-04-06T12:29:09;7.68;;;4.10;;
73747;SDS011;62056;52.130;5.428;2023-04-06T12:31:36;7.15;;;4.25;;
73747;SDS011;62056;52.130;5.428;2023-04-06T12:34:34;4.22;;;3.53;;
73747;SDS011;62056;52.130;5.428;2023-04-06T12:37:01;3.03;;;2.50;;
73747;SDS011;62056;52.130;5.428;2023-04-06T12:39:29;4.15;;;3.75;;
73747;SDS011;62056;52.130;5.428;2023-04-06T12:41:56;4.25;;;2.30;;
73747;SDS011;62056;52.130;5.428;2023-04-06T12:44:50;2.95;;;2.42;;
73747;SDS011;62056;52.130;5.428;2023-04-06T12:47:17;4.70;;;4.20;;
73747;SDS011;62056;52.130;5.428;2023-04-06T12:49:44;3.83;;;3.50;;
73747;SDS011;62056;52.130;5.428;2023-04-06T12:52:11;4.53;;;3.55;;
73747;SDS011;62056;52.130;5.428;2023-04-06T12:54:38;5.13;;;4.03;;
73747;SDS011;62056;52.130;5.428;2023-04-06T12:57:04;4.43;;;4.03;;
73747;SDS011;62056;52.130;5.428;2023-04-06T12:59:31;4.68;;;3.70;;
73747;SDS011;62056;52.130;5.428;2023-04-06T13:02:01;4.27;;;3.50;;
73747;SDS011;62056;52.130;5.428;2023-04-06T13:04:29;5.38;;;3.45;;
73747;SDS011;62056;52.130;5.428;2023-04-06T13:06:56;4.07;;;3.13;;
73747;SDS011;62056;52.130;5.428;2023-04-06T13:09:23;5.72;;;3.40;;
73747;SDS011;62056;52.130;5.428;2023-04-06T13:11:50;5.00;;;4.50;;
73747;SDS011;62056;52.130;5.428;2023-04-06T13:14:17;6.30;;;4.30;;
73747;SDS011;62056;52.130;5.428;2023-04-06T13:16:44;5.13;;;3.60;;
73747;SDS011;62056;52.130;5.428;2023-04-06T13:19:13;3.10;;;2.80;;
73747;SDS011;62056;52.130;5.428;2023-04-06T13:21:40;5.38;;;3.70;;
73747;SDS011;62056;52.130;5.428;2023-04-06T13:24:07;6.93;;;4.18;;
73747;SDS011;62056;52.130;5.428;2023-04-06T13:26:33;4.03;;;3.63;;
73747;SDS011;62056;52.130;5.428;2023-04-06T13:29:00;5.40;;;4.40;;
73747;SDS011;62056;52.130;5.428;2023-04-06T13:31:28;5.05;;;4.55;;
73747;SDS011;62056;52.130;5.428;2023-04-06T13:33:55;5.28;;;3.60;;
73747;SDS011;62056;52.130;5.428;2023-04-06T13:36:22;5.90;;;4.60;;
73747;SDS011;62056;52.130;5.428;2023-04-06T13:38:49;4.80;;;4.30;;
73747;SDS011;62056;52.130;5.428;2023-04-06T13:41:21;5.53;;;4.20;;
73747;SDS011;62056;52.130;5.428;2023-04-06T13:43:49;6.50;;;4.75;;
73747;SDS011;62056;52.130;5.428;2023-04-06T13:46:16;5.35;;;4.85;;
73747;SDS011;62056;52.130;5.428;2023-04-06T13:48:43;5.10;;;4.53;;
73747;SDS011;62056;52.130;5.428;2023-04-06T13:51:12;7.27;;;2.70;;
73747;SDS011;62056;52.130;5.428;2023-04-06T13:54:07;5.53;;;3.50;;
73747;SDS011;62056;52.130;5.428;2023-04-06T13:56:34;5.13;;;4.00;;
73747;SDS011;62056;52.130;5.428;2023-04-06T13:59:02;4.78;;;4.00;;
73747;SDS011;62056;52.130;5.428;2023-04-06T14:01:29;4.65;;;3.97;;
73747;SDS011;62056;52.130;5.428;2023-04-06T14:03:56;5.10;;;4.60;;
73747;SDS011;62056;52.130;5.428;2023-04-06T14:06:23;5.68;;;4.45;;
73747;SDS011;62056;52.130;5.428;2023-04-06T14:09:01;6.15;;;5.30;;
73747;SDS011;62056;52.130;5.428;2023-04-06T14:11:27;4.93;;;3.80;;
73747;SDS011;62056;52.130;5.428;2023-04-06T14:14:22;4.18;;;3.63;;
73747;SDS011;62056;52.130;5.428;2023-04-06T14:16:49;4.47;;;3.67;;
73747;SDS011;62056;52.130;5.428;2023-04-06T14:19:17;6.47;;;5.45;;
73747;SDS011;62056;52.130;5.428;2023-04-06T14:21:44;6.25;;;4.30;;
73747;SDS011;62056;52.130;5.428;2023-04-06T14:24:38;6.05;;;4.70;;
73747;SDS011;62056;52.130;5.428;2023-04-06T14:27:06;4.05;;;3.53;;
73747;SDS011;62056;52.130;5.428;2023-04-06T14:29:33;5.43;;;4.90;;
73747;SDS011;62056;52.130;5.428;2023-04-06T14:31:59;5.97;;;4.53;;
73747;SDS011;62056;52.130;5.428;2023-04-06T14:34:53;5.00;;;4.40;;
73747;SDS011;62056;52.130;5.428;2023-04-06T14:37:20;5.60;;;4.88;;
73747;SDS011;62056;52.130;5.428;2023-04-06T14:39:48;5.47;;;4.93;;
73747;SDS011;62056;52.130;5.428;2023-04-06T14:42:15;4.70;;;3.73;;
73747;SDS011;62056;52.130;5.428;2023-04-06T14:44:42;4.75;;;4.07;;
73747;SDS011;62056;52.130;5.428;2023-04-06T14:47:11;5.40;;;4.78;;
73747;SDS011;62056;52.130;5.428;2023-04-06T14:49:41;6.18;;;4.45;;
73747;SDS011;62056;52.130;5.428;2023-04-06T14:52:08;6.57;;;4.80;;
73747;SDS011;62056;52.130;5.428;2023-04-06T14:54:35;5.70;;;4.37;;
73747;SDS011;62056;52.130;5.428;2023-04-06T14:57:01;4.75;;;3.78;;
73747;SDS011;62056;52.130;5.428;2023-04-06T14:59:28;5.38;;;4.88;;
73747;SDS011;62056;52.130;5.428;2023-04-06T15:01:55;7.30;;;4.93;;
73747;SDS011;62056;52.130;5.428;2023-04-06T15:04:49;3.83;;;3.42;;
73747;SDS011;62056;52.130;5.428;2023-04-06T15:07:19;5.53;;;4.63;;